Aérodrome :
LOGIN :

S'inscrire | Disclaimer

   EN    FR    IT 

 










Légende :    VFR   VFR Marginal   IFR   IFR Intensif   IFR Très Intensif
Visi : 
Plafond : 
>= 8 km
>= 3000ft
5 à 8 km
1000 à 3000 ft
1500m à 5 km
500 à 1000 ft
800 à 1500m
200 à 500 ft
< 800m
< 200 ft
Symboles :   Orages  Brouillard  Fortes neiges  Fortes précipitations  Vent > 20 kt
SIGMETs :   Divers  Orages  Givrage  Turbulence  Onde Orograph.  Cendres Volcan.






- Altitude de l'aérodrome : 408 ft
- Code IATA : FKB


EDSB - Karlsruhe Baden Baden

DERNIER METAR :
  • 260650Z 19010KT 8000 RA FEW046 BKN056 10/09 Q1005

METARs EXPIRÉS :
  • 260620Z 21008KT 7000 RA BKN045 OVC054 10/09 Q1005
  • 260550Z 20010KT 7000 RA BKN049 10/09 Q1005
  • 260520Z 21007KT 9999 RA BKN048 10/09 Q1005
  • 260450Z 20009KT 9999 RA BKN048 11/10 Q1004
  • 260420Z AUTO 20007KT 9999 // OVC060/// 11/10 Q1004

TAF TAF EDSB
Valide du 26 à 06h jusqu'au 27 à 06h UTC


260500Z 2606/2706 21008KT 9999 BKN035
TEMPO 2606/2614 RA BKN014



MET'MAP, la Météo Aéronautique d'un coup d'oeil ! - Copyright ORBIFLY Décembre 2007 - Disclaimer

ORBIFLY MET'MAP TEAM :

Programmation & Développement : Alexandra Zaïnal
Sur une idée originale de : Baudouin d'Aumeries
Assistance à la programmation : Marc-Olivier Méhu
Soutien technique & logistique : Manuel Goepfert

Contact : metmap@orbifly.com




SOURCES & CREDITS :

   NOAA